createdAt,value
2023-03-01T00:00:05.750Z,15.89
2023-03-01T00:00:16.749Z,15.88
2023-03-01T00:00:27.893Z,15.89
2023-03-01T00:00:38.727Z,15.88
2023-03-01T00:00:49.728Z,15.88
2023-03-01T00:01:00.715Z,15.88
2023-03-01T00:01:11.744Z,15.88
2023-03-01T00:01:23.734Z,15.88
2023-03-01T00:01:34.747Z,15.88
2023-03-01T00:01:45.753Z,15.88
2023-03-01T00:01:56.777Z,15.88
2023-03-01T00:02:07.712Z,15.88
2023-03-01T00:02:18.813Z,15.88
2023-03-01T00:02:29.781Z,15.88
2023-03-01T00:02:41.801Z,15.88
2023-03-01T00:02:52.728Z,15.88
2023-03-01T00:03:03.803Z,15.89
2023-03-01T00:03:14.808Z,15.86
2023-03-01T00:03:25.791Z,15.89
2023-03-01T00:03:36.758Z,15.88
2023-03-01T00:03:47.757Z,15.89
2023-03-01T00:03:58.768Z,15.88
2023-03-01T00:04:09.765Z,15.88
2023-03-01T00:04:20.774Z,15.88
2023-03-01T00:04:32.760Z,15.86
2023-03-01T00:04:43.762Z,15.86
2023-03-01T00:04:54.761Z,15.86
2023-03-01T00:05:06.784Z,15.89
2023-03-01T00:05:18.752Z,15.86
2023-03-01T00:05:29.758Z,15.86
2023-03-01T00:05:41.764Z,15.88
2023-03-01T00:05:53.751Z,15.86
2023-03-01T00:06:04.742Z,15.88
2023-03-01T00:06:16.743Z,15.88
2023-03-01T00:06:27.860Z,15.88
2023-03-01T00:06:39.758Z,15.88
2023-03-01T00:06:50.780Z,15.89
2023-03-01T00:07:02.742Z,15.86
2023-03-01T00:07:13.745Z,15.88
2023-03-01T00:07:25.748Z,15.86
2023-03-01T00:07:36.815Z,15.88
2023-03-01T00:07:47.733Z,15.88
2023-03-01T00:07:58.743Z,15.88
2023-03-01T00:08:09.734Z,15.88
2023-03-01T00:08:20.736Z,15.88
2023-03-01T00:08:31.735Z,15.88
2023-03-01T00:08:58.078Z,15.86
2023-03-01T00:08:58.728Z,15.86
2023-03-01T00:09:09.723Z,15.89
2023-03-01T00:09:20.712Z,15.86
2023-03-01T00:09:31.747Z,15.88
2023-03-01T00:09:42.738Z,15.88
2023-03-01T00:09:53.745Z,15.86
2023-03-01T00:10:04.767Z,15.86
2023-03-01T00:10:15.762Z,15.88
2023-03-01T00:10:26.772Z,15.86
2023-03-01T00:10:38.770Z,15.88
2023-03-01T00:10:50.753Z,15.88
2023-03-01T00:11:02.820Z,15.86
2023-03-01T00:11:13.814Z,15.86
2023-03-01T00:11:24.804Z,15.88
2023-03-01T00:11:36.802Z,15.86
2023-03-01T00:11:48.770Z,15.86
2023-03-01T00:12:00.726Z,15.86
2023-03-01T00:12:11.759Z,15.86
2023-03-01T00:12:22.775Z,15.86
2023-03-01T00:12:33.767Z,15.85
2023-03-01T00:12:44.785Z,15.86
2023-03-01T00:12:56.737Z,15.86
2023-03-01T00:13:08.742Z,15.86
2023-03-01T00:13:19.740Z,15.85
2023-03-01T00:13:30.754Z,15.86
2023-03-01T00:13:41.746Z,15.86
2023-03-01T00:13:53.759Z,15.86
2023-03-01T00:14:04.763Z,15.86
2023-03-01T00:14:15.765Z,15.86
2023-03-01T00:14:26.759Z,15.85
2023-03-01T00:14:38.770Z,15.86
2023-03-01T00:14:50.771Z,15.86
2023-03-01T00:15:01.779Z,15.86
2023-03-01T00:15:12.817Z,15.86
2023-03-01T00:15:23.738Z,15.85
2023-03-01T00:15:34.740Z,15.86
2023-03-01T00:15:45.759Z,15.86
2023-03-01T00:15:56.774Z,15.85
2023-03-01T00:16:08.744Z,15.86
2023-03-01T00:16:19.763Z,15.85
2023-03-01T00:16:32.023Z,15.85
2023-03-01T00:16:43.869Z,15.88
2023-03-01T00:16:54.924Z,15.85
2023-03-01T00:17:05.853Z,15.85
2023-03-01T00:17:17.768Z,15.86
2023-03-01T00:17:28.767Z,15.86
2023-03-01T00:17:40.750Z,15.86
2023-03-01T00:17:52.769Z,15.85
2023-03-01T00:18:03.770Z,15.86
2023-03-01T00:18:14.749Z,15.86
2023-03-01T00:18:25.752Z,15.86
2023-03-01T00:18:36.833Z,15.88
2023-03-01T00:18:48.818Z,15.86
2023-03-01T00:19:00.790Z,15.85
2023-03-01T00:19:12.792Z,15.86
2023-03-01T00:19:23.785Z,15.86
2023-03-01T00:19:35.742Z,15.86
2023-03-01T00:19:46.743Z,15.85
2023-03-01T00:19:57.765Z,15.86
2023-03-01T00:20:08.779Z,15.86
2023-03-01T00:20:20.759Z,15.86
2023-03-01T00:20:31.767Z,15.85
2023-03-01T00:20:43.733Z,15.86
2023-03-01T00:20:54.768Z,15.86
2023-03-01T00:21:05.746Z,15.85
2023-03-01T00:21:17.742Z,15.85
2023-03-01T00:21:28.761Z,15.85
2023-03-01T00:21:39.784Z,15.85
2023-03-01T00:21:50.789Z,15.85
2023-03-01T00:22:02.796Z,15.86
2023-03-01T00:22:14.756Z,15.85
2023-03-01T00:22:26.747Z,15.85
2023-03-01T00:22:37.742Z,15.85
2023-03-01T00:22:48.748Z,15.85
2023-03-01T00:23:00.758Z,15.85
2023-03-01T00:23:11.789Z,15.85
2023-03-01T00:23:23.751Z,15.85
2023-03-01T00:23:34.762Z,15.85
2023-03-01T00:23:45.749Z,15.85
2023-03-01T00:23:56.777Z,15.86
2023-03-01T00:24:08.749Z,15.85
2023-03-01T00:24:19.749Z,15.84
2023-03-01T00:24:30.765Z,15.84
2023-03-01T00:24:41.773Z,15.85
2023-03-01T00:24:53.740Z,15.85
2023-03-01T00:25:04.741Z,15.85
2023-03-01T00:25:16.733Z,15.85
2023-03-01T00:25:28.740Z,15.84
2023-03-01T00:25:40.756Z,15.86
2023-03-01T00:25:52.754Z,15.85
2023-03-01T00:26:03.760Z,15.84
2023-03-01T00:26:14.778Z,15.86
2023-03-01T00:26:26.815Z,15.86
2023-03-01T00:26:37.758Z,15.85
2023-03-01T00:26:48.749Z,15.85
2023-03-01T00:26:59.757Z,15.85
2023-03-01T00:27:10.752Z,15.85
2023-03-01T00:27:32.773Z,15.84
2023-03-01T00:27:33.739Z,15.85
2023-03-01T00:27:44.728Z,15.86
2023-03-01T00:27:55.731Z,15.84
2023-03-01T00:28:06.743Z,15.85
2023-03-01T00:28:17.751Z,15.84
2023-03-01T00:28:28.760Z,15.85
2023-03-01T00:28:40.747Z,15.84
2023-03-01T00:28:52.744Z,15.85
2023-03-01T00:29:03.756Z,15.85
2023-03-01T00:29:14.757Z,15.84
2023-03-01T00:29:25.755Z,15.85
2023-03-01T00:29:36.744Z,15.84
2023-03-01T00:29:47.739Z,15.85
2023-03-01T00:29:58.759Z,15.84
2023-03-01T00:30:09.766Z,15.84
2023-03-01T00:30:20.765Z,15.85
2023-03-01T00:30:31.819Z,15.85
2023-03-01T00:30:43.850Z,15.85
2023-03-01T00:30:54.844Z,15.85
2023-03-01T00:31:05.815Z,15.85
2023-03-01T00:31:16.750Z,15.85
2023-03-01T00:31:28.738Z,15.85
2023-03-01T00:31:39.748Z,15.84
2023-03-01T00:31:50.761Z,15.85
2023-03-01T00:34:10.791Z,15.84
2023-03-01T00:34:21.795Z,15.85
2023-03-01T00:34:33.770Z,15.84
2023-03-01T00:34:45.760Z,15.84
2023-03-01T00:34:57.757Z,15.84
2023-03-01T00:35:08.753Z,15.81
2023-03-01T00:35:19.789Z,15.85
2023-03-01T00:35:31.797Z,15.85
2023-03-01T00:35:43.849Z,15.84
2023-03-01T00:35:54.809Z,15.85
2023-03-01T00:36:13.792Z,15.85
2023-03-01T00:36:18.725Z,15.84
2023-03-01T00:36:30.339Z,15.85
2023-03-01T00:36:41.752Z,15.85
2023-03-01T00:36:52.760Z,15.85
2023-03-01T00:37:03.767Z,15.85
2023-03-01T00:37:14.771Z,15.84
2023-03-01T00:37:25.777Z,15.85
2023-03-01T00:37:36.846Z,15.85
2023-03-01T00:37:48.805Z,15.84
2023-03-01T00:38:00.770Z,15.85
2023-03-01T00:38:11.771Z,15.85
2023-03-01T00:38:23.748Z,15.84
2023-03-01T00:38:34.751Z,15.85
2023-03-01T00:38:45.750Z,15.86
2023-03-01T00:38:56.768Z,15.85
2023-03-01T00:39:07.774Z,15.86
2023-03-01T00:39:19.786Z,15.86
2023-03-01T00:39:31.749Z,15.86
2023-03-01T00:39:43.751Z,15.85
2023-03-01T00:39:54.780Z,15.84
2023-03-01T00:40:06.768Z,15.86
2023-03-01T00:40:18.744Z,15.85
2023-03-01T00:40:29.750Z,15.85
2023-03-01T00:40:40.742Z,15.86
2023-03-01T00:40:51.740Z,15.85
2023-03-01T00:41:02.760Z,15.85
2023-03-01T00:41:13.754Z,15.85
2023-03-01T00:41:24.778Z,15.86
2023-03-01T00:41:35.840Z,15.85
2023-03-01T00:41:46.776Z,15.85
2023-03-01T00:41:57.771Z,15.85
2023-03-01T00:42:08.765Z,15.85
2023-03-01T00:42:20.748Z,15.86
2023-03-01T00:42:31.744Z,15.86
2023-03-01T00:42:42.739Z,15.85
2023-03-01T00:42:53.766Z,15.86
2023-03-01T00:43:04.774Z,15.86
2023-03-01T00:43:16.749Z,15.85
2023-03-01T00:43:27.812Z,15.85
2023-03-01T00:43:39.783Z,15.85
2023-03-01T00:43:50.785Z,15.86
2023-03-01T00:44:02.751Z,15.85
2023-03-01T00:44:13.764Z,15.86
2023-03-01T00:44:24.764Z,15.85
2023-03-01T00:44:35.768Z,15.85
2023-03-01T00:44:47.750Z,15.84
2023-03-01T00:44:58.750Z,15.85
2023-03-01T00:45:09.759Z,15.85
2023-03-01T00:45:20.777Z,15.86
2023-03-01T00:45:32.751Z,15.85
2023-03-01T00:45:43.744Z,15.85
2023-03-01T00:45:55.796Z,15.85
2023-03-01T00:46:07.797Z,15.85
2023-03-01T00:46:19.799Z,15.86
2023-03-01T00:46:32.222Z,15.85
2023-03-01T00:46:42.781Z,15.86
2023-03-01T00:46:54.776Z,15.86
2023-03-01T00:47:05.789Z,15.86
2023-03-01T00:47:17.761Z,15.86
2023-03-01T00:47:28.756Z,15.86
2023-03-01T00:47:40.485Z,15.86
2023-03-01T00:47:51.780Z,15.86
2023-03-01T00:48:03.754Z,15.86
2023-03-01T00:48:14.746Z,15.86
2023-03-01T00:48:25.740Z,15.85
2023-03-01T00:48:36.780Z,15.86
2023-03-01T00:48:48.742Z,15.85
2023-03-01T00:48:59.755Z,15.85
2023-03-01T00:49:10.746Z,15.85
2023-03-01T00:49:21.743Z,15.85
2023-03-01T00:49:32.749Z,15.85
2023-03-01T00:49:43.781Z,15.85
2023-03-01T00:49:54.798Z,15.85
2023-03-01T00:50:06.790Z,15.86
2023-03-01T00:50:17.746Z,15.85
2023-03-01T00:50:28.758Z,15.84
2023-03-01T00:50:39.766Z,15.85
2023-03-01T00:50:50.811Z,15.85
2023-03-01T00:51:02.795Z,15.85
2023-03-01T00:51:14.773Z,15.85
2023-03-01T00:51:37.790Z,15.85
2023-03-01T00:51:38.746Z,15.84
2023-03-01T00:51:49.756Z,15.85
2023-03-01T00:52:00.751Z,15.85
2023-03-01T00:52:11.769Z,15.84
2023-03-01T00:52:23.767Z,15.84
2023-03-01T00:52:34.769Z,15.85
2023-03-01T00:52:45.781Z,15.85
2023-03-01T00:52:57.765Z,15.85
2023-03-01T00:53:08.762Z,15.84
2023-03-01T00:53:19.766Z,15.84
2023-03-01T00:53:30.765Z,15.84
2023-03-01T00:53:41.808Z,15.84
2023-03-01T00:53:53.775Z,15.85
2023-03-01T00:54:05.760Z,15.81
2023-03-01T00:54:16.768Z,15.81
2023-03-01T00:54:27.763Z,15.84
2023-03-01T00:54:38.791Z,15.84
2023-03-01T00:54:50.783Z,15.85
2023-03-01T00:55:02.782Z,15.84
2023-03-01T00:55:13.795Z,15.85
2023-03-01T00:55:25.786Z,15.81
2023-03-01T00:55:37.745Z,15.84
2023-03-01T00:55:48.750Z,15.85
2023-03-01T00:56:00.773Z,15.84
2023-03-01T00:56:11.774Z,15.84
2023-03-01T00:56:23.779Z,15.84
2023-03-01T00:56:34.916Z,15.84
2023-03-01T00:56:46.801Z,15.84
2023-03-01T00:56:58.784Z,15.84
2023-03-01T00:57:10.805Z,15.84
2023-03-01T00:57:22.779Z,15.85
2023-03-01T00:57:33.803Z,15.84
2023-03-01T00:57:45.770Z,15.85
2023-03-01T00:57:57.756Z,15.84
2023-03-01T00:58:08.770Z,15.84
2023-03-01T00:58:20.773Z,15.85
2023-03-01T00:58:31.776Z,15.84
2023-03-01T00:58:42.796Z,15.84
2023-03-01T00:58:54.783Z,15.85
2023-03-01T00:59:06.755Z,15.85
2023-03-01T00:59:18.761Z,15.84
2023-03-01T00:59:29.792Z,15.85
2023-03-01T00:59:40.788Z,15.84
2023-03-01T00:59:51.785Z,15.84
2023-03-01T01:00:02.800Z,15.84
2023-03-01T01:00:14.787Z,15.84
2023-03-01T01:00:26.764Z,15.85
2023-03-01T01:00:37.771Z,15.84
2023-03-01T01:00:48.776Z,15.84
2023-03-01T01:00:59.795Z,15.81
2023-03-01T01:01:11.816Z,15.85
2023-03-01T01:01:23.816Z,15.84
2023-03-01T01:01:34.872Z,15.84
2023-03-01T01:01:45.876Z,15.84
2023-03-01T01:01:56.805Z,15.84
2023-03-01T01:02:08.800Z,15.85
2023-03-01T01:02:20.796Z,15.84
2023-03-01T01:02:32.812Z,15.84
2023-03-01T01:02:44.795Z,15.84
2023-03-01T01:02:55.784Z,15.84
2023-03-01T01:03:06.816Z,15.84
2023-03-01T01:03:18.780Z,15.84
2023-03-01T01:03:30.747Z,15.85
2023-03-01T01:03:41.757Z,15.84
2023-03-01T01:03:52.753Z,15.85
2023-03-01T01:04:03.749Z,15.85
2023-03-01T01:04:14.766Z,15.84
2023-03-01T01:04:26.753Z,15.85
2023-03-01T01:04:37.749Z,15.84
2023-03-01T01:04:49.760Z,15.84
2023-03-01T01:05:00.775Z,15.84
2023-03-01T01:05:11.774Z,15.84
2023-03-01T01:05:23.754Z,15.84
2023-03-01T01:05:34.793Z,15.85
2023-03-01T01:05:46.758Z,15.86
2023-03-01T01:05:58.811Z,15.84
2023-03-01T01:06:09.746Z,15.84
2023-03-01T01:06:20.753Z,15.84
2023-03-01T01:06:32.091Z,15.81
2023-03-01T01:06:43.773Z,15.85
2023-03-01T01:06:54.772Z,15.84
2023-03-01T01:07:05.766Z,15.84
2023-03-01T01:07:16.779Z,15.85
2023-03-01T01:07:28.766Z,15.84
2023-03-01T01:07:40.501Z,15.85
2023-03-01T01:07:50.741Z,15.81
2023-03-01T01:08:01.735Z,15.86
2023-03-01T01:08:12.757Z,15.85
2023-03-01T01:08:24.774Z,15.84
2023-03-01T01:08:36.800Z,15.84
2023-03-01T01:08:47.801Z,15.84
2023-03-01T01:08:59.797Z,15.84
2023-03-01T01:09:11.797Z,15.84
2023-03-01T01:09:23.765Z,15.84
2023-03-01T01:09:34.800Z,15.85
2023-03-01T01:09:46.766Z,15.85
2023-03-01T01:09:58.792Z,15.81
2023-03-01T01:10:10.759Z,15.84
2023-03-01T01:10:21.773Z,15.84
2023-03-01T01:10:33.754Z,15.81
2023-03-01T01:10:44.751Z,15.85
2023-03-01T01:10:55.751Z,15.81
2023-03-01T01:11:06.746Z,15.84
2023-03-01T01:11:17.742Z,15.84
2023-03-01T01:11:28.740Z,15.84
2023-03-01T01:11:39.764Z,15.84
2023-03-01T01:11:51.796Z,15.81
2023-03-01T01:12:03.769Z,15.84
2023-03-01T01:12:14.774Z,15.84
2023-03-01T01:12:26.763Z,15.84
2023-03-01T01:12:38.752Z,15.84
2023-03-01T01:12:49.753Z,15.84
2023-03-01T01:13:00.748Z,15.84
2023-03-01T01:13:11.730Z,15.84
2023-03-01T01:13:22.751Z,15.84
2023-03-01T01:13:33.766Z,15.84
2023-03-01T01:13:44.765Z,15.84
2023-03-01T01:13:55.764Z,15.81
2023-03-01T01:14:06.751Z,15.81
2023-03-01T01:14:18.765Z,15.84
2023-03-01T01:14:29.758Z,15.84
2023-03-01T01:14:40.778Z,15.81
2023-03-01T01:14:52.763Z,15.84
2023-03-01T01:15:03.769Z,15.81
2023-03-01T01:15:15.754Z,15.84
2023-03-01T01:15:26.747Z,15.80
2023-03-01T01:15:37.788Z,15.84
2023-03-01T01:15:49.807Z,15.81
2023-03-01T01:16:01.795Z,15.81
2023-03-01T01:16:13.800Z,15.84
2023-03-01T01:16:24.750Z,15.84
2023-03-01T01:16:35.750Z,15.84
2023-03-01T01:16:47.748Z,15.81
2023-03-01T01:16:58.734Z,15.84
2023-03-01T01:17:09.749Z,15.84
2023-03-01T01:17:20.748Z,15.81
2023-03-01T01:17:31.758Z,15.81
2023-03-01T01:17:42.797Z,15.81
2023-03-01T01:17:54.754Z,15.84
2023-03-01T01:18:05.757Z,15.84
2023-03-01T01:18:16.760Z,15.81
2023-03-01T01:18:28.758Z,15.80
2023-03-01T01:18:39.782Z,15.81
2023-03-01T01:18:51.790Z,15.81
2023-03-01T01:19:03.762Z,15.81
2023-03-01T01:19:14.756Z,15.80
2023-03-01T01:19:26.760Z,15.81
2023-03-01T01:19:37.774Z,15.81
2023-03-01T01:19:49.740Z,15.81
2023-03-01T01:20:00.753Z,15.80
2023-03-01T01:20:11.751Z,15.80
2023-03-01T01:20:22.758Z,15.81
2023-03-01T01:20:33.764Z,15.81
2023-03-01T01:20:44.769Z,15.81
2023-03-01T01:20:56.743Z,15.80
2023-03-01T01:21:07.745Z,15.81
2023-03-01T01:21:18.736Z,15.81
2023-03-01T01:21:29.751Z,15.81
2023-03-01T01:21:40.750Z,15.80
2023-03-01T01:21:51.772Z,15.81
2023-03-01T01:22:03.776Z,15.84
2023-03-01T01:22:15.764Z,15.81
2023-03-01T01:22:26.773Z,15.81
2023-03-01T01:22:37.784Z,15.80
2023-03-01T01:22:48.766Z,15.81
2023-03-01T01:22:59.771Z,15.81
2023-03-01T01:23:11.745Z,15.80
2023-03-01T01:23:22.745Z,15.80
2023-03-01T01:23:33.738Z,15.80
2023-03-01T01:23:44.757Z,15.80
2023-03-01T01:23:55.764Z,15.81
2023-03-01T01:24:06.754Z,15.78
2023-03-01T01:24:18.742Z,15.81
2023-03-01T01:24:29.745Z,15.81
2023-03-01T01:24:40.745Z,15.81
2023-03-01T01:24:51.751Z,15.80
2023-03-01T01:25:02.804Z,15.81
2023-03-01T01:25:14.778Z,15.81
2023-03-01T01:25:26.861Z,15.81
2023-03-01T01:25:38.779Z,15.80
2023-03-01T01:25:50.766Z,15.80
2023-03-01T01:26:02.775Z,15.80
2023-03-01T01:26:13.783Z,15.80
2023-03-01T01:26:25.758Z,15.81
2023-03-01T01:26:36.752Z,15.81
2023-03-01T01:26:47.774Z,15.81
2023-03-01T01:26:58.776Z,15.80
2023-03-01T01:27:10.789Z,15.80
2023-03-01T01:27:22.766Z,15.84
2023-03-01T01:27:33.757Z,15.81
2023-03-01T01:27:44.788Z,15.80
2023-03-01T01:28:03.748Z,15.80
2023-03-01T01:28:08.777Z,15.80
2023-03-01T01:28:19.787Z,15.81
2023-03-01T01:28:31.762Z,15.81
2023-03-01T01:28:42.785Z,15.80
2023-03-01T01:28:54.766Z,15.81
2023-03-01T01:29:05.771Z,15.81
2023-03-01T01:29:17.752Z,15.81
2023-03-01T01:29:28.748Z,15.80
2023-03-01T01:29:39.754Z,15.80
2023-03-01T01:29:50.758Z,15.80
2023-03-01T01:30:01.755Z,15.80
2023-03-01T01:30:12.770Z,15.81
2023-03-01T01:30:23.776Z,15.80
2023-03-01T01:30:35.762Z,15.81
2023-03-01T01:30:46.791Z,15.81
2023-03-01T01:30:58.869Z,15.81
2023-03-01T01:31:10.814Z,15.80
2023-03-01T01:31:21.815Z,15.80
2023-03-01T01:31:33.821Z,15.81
2023-03-01T01:31:44.794Z,15.80
2023-03-01T01:31:56.770Z,15.80
2023-03-01T01:32:08.879Z,15.81
2023-03-01T01:32:20.797Z,15.81
2023-03-01T01:32:42.752Z,15.81
2023-03-01T01:32:43.817Z,15.81
2023-03-01T01:32:55.790Z,15.80
2023-03-01T01:33:07.765Z,15.84
2023-03-01T01:33:19.773Z,15.81
2023-03-01T01:33:31.755Z,15.81
2023-03-01T01:33:42.758Z,15.81
2023-03-01T01:33:53.763Z,15.81
2023-03-01T01:34:04.777Z,15.81
2023-03-01T01:34:16.773Z,15.81
2023-03-01T01:34:28.758Z,15.80
2023-03-01T01:34:39.755Z,15.81
2023-03-01T01:34:50.779Z,15.81
2023-03-01T01:35:02.742Z,15.81
2023-03-01T01:35:13.776Z,15.81
2023-03-01T01:35:25.812Z,15.81
2023-03-01T01:35:36.757Z,15.81
2023-03-01T01:35:47.807Z,15.80
2023-03-01T01:35:59.773Z,15.80
2023-03-01T01:36:11.750Z,15.81
2023-03-01T01:36:22.742Z,15.81
2023-03-01T01:36:33.757Z,15.81
2023-03-01T01:36:44.767Z,15.81
2023-03-01T01:36:55.769Z,15.81
2023-03-01T01:37:06.764Z,15.81
2023-03-01T01:37:17.784Z,15.80
2023-03-01T01:37:29.754Z,15.80
2023-03-01T01:37:40.761Z,15.80
2023-03-01T01:37:51.783Z,15.80
2023-03-01T01:38:03.739Z,15.80
2023-03-01T01:38:14.754Z,15.80
2023-03-01T01:38:25.745Z,15.80
2023-03-01T01:38:36.754Z,15.80
2023-03-01T01:38:47.774Z,15.78
2023-03-01T01:38:59.761Z,15.80
2023-03-01T01:39:10.761Z,15.81
2023-03-01T01:39:22.757Z,15.78
2023-03-01T01:39:33.751Z,15.80
2023-03-01T01:39:44.755Z,15.80
2023-03-01T01:39:56.771Z,15.80
2023-03-01T01:40:07.774Z,15.80
2023-03-01T01:40:18.770Z,15.80
2023-03-01T01:40:30.752Z,15.80
2023-03-01T01:40:41.746Z,15.80
2023-03-01T01:40:52.738Z,15.80
2023-03-01T01:41:03.744Z,15.78
2023-03-01T01:41:14.768Z,15.80
2023-03-01T01:41:25.776Z,15.80
2023-03-01T01:41:36.784Z,15.80
2023-03-01T01:41:48.741Z,15.80
2023-03-01T01:41:59.740Z,15.80
2023-03-01T01:42:10.740Z,15.81
2023-03-01T01:42:22.781Z,15.80
2023-03-01T01:42:34.747Z,15.80
2023-03-01T01:42:45.773Z,15.80
2023-03-01T01:42:57.750Z,15.80
2023-03-01T01:43:08.745Z,15.80
2023-03-01T01:43:19.766Z,15.80
2023-03-01T01:43:31.755Z,15.78
2023-03-01T01:43:42.748Z,15.80
2023-03-01T01:43:53.752Z,15.78
2023-03-01T01:44:04.760Z,15.80
2023-03-01T01:44:16.762Z,15.80
2023-03-01T01:44:28.772Z,15.80
2023-03-01T01:44:39.764Z,15.78
2023-03-01T01:44:50.767Z,15.80
2023-03-01T01:45:01.771Z,15.80
2023-03-01T01:45:13.745Z,15.80
2023-03-01T01:45:24.743Z,15.78
2023-03-01T01:45:35.746Z,15.78
2023-03-01T01:45:46.739Z,15.78
2023-03-01T01:45:57.785Z,15.77
2023-03-01T01:46:09.814Z,15.80
2023-03-01T01:46:21.861Z,15.80
2023-03-01T01:46:34.260Z,15.78
2023-03-01T01:46:44.804Z,15.80
2023-03-01T01:46:55.762Z,15.78
2023-03-01T01:47:06.756Z,15.80
2023-03-01T01:47:17.773Z,15.78
2023-03-01T01:47:29.749Z,15.78
2023-03-01T01:47:40.772Z,15.78
2023-03-01T01:47:51.763Z,15.80
2023-03-01T01:48:03.751Z,15.78
2023-03-01T01:48:15.748Z,15.78
2023-03-01T01:48:26.766Z,15.80
2023-03-01T01:48:37.762Z,15.78
2023-03-01T01:48:48.766Z,15.80
2023-03-01T01:48:59.775Z,15.78
2023-03-01T01:49:10.784Z,15.78
2023-03-01T01:49:21.784Z,15.80
2023-03-01T01:49:33.774Z,15.78
2023-03-01T01:49:44.794Z,15.78
2023-03-01T01:49:56.794Z,15.80
2023-03-01T01:50:08.795Z,15.81
2023-03-01T01:50:20.762Z,15.80
2023-03-01T01:50:31.762Z,15.80
2023-03-01T01:50:42.788Z,15.78
2023-03-01T01:50:54.755Z,15.80
2023-03-01T01:51:05.770Z,15.78
2023-03-01T01:51:17.756Z,15.78
2023-03-01T01:51:28.777Z,15.78
2023-03-01T01:51:40.764Z,15.78
2023-03-01T01:51:51.768Z,15.78
2023-03-01T01:52:02.773Z,15.77
2023-03-01T01:52:13.779Z,15.80
2023-03-01T01:52:25.743Z,15.78
2023-03-01T01:52:36.787Z,15.78
2023-03-01T01:52:48.748Z,15.80
2023-03-01T01:52:59.758Z,15.78
2023-03-01T01:53:10.766Z,15.80
2023-03-01T01:53:21.793Z,15.78
2023-03-01T01:53:33.761Z,15.78
2023-03-01T01:53:45.770Z,15.80
2023-03-01T01:53:56.778Z,15.78
2023-03-01T01:54:08.745Z,15.77
2023-03-01T01:54:19.750Z,15.78
2023-03-01T01:54:30.756Z,15.77
2023-03-01T01:54:41.763Z,15.77
2023-03-01T01:54:52.781Z,15.78
2023-03-01T01:55:04.752Z,15.78
2023-03-01T01:55:15.771Z,15.78
2023-03-01T01:55:27.777Z,15.78
2023-03-01T01:55:39.747Z,15.78
2023-03-01T01:55:50.751Z,15.77
2023-03-01T01:56:01.767Z,15.77
2023-03-01T01:56:12.749Z,15.80
2023-03-01T01:56:23.743Z,15.78
2023-03-01T01:56:34.740Z,15.78
2023-03-01T01:56:45.768Z,15.80
2023-03-01T01:56:57.768Z,15.80
2023-03-01T01:57:09.746Z,15.78
2023-03-01T01:57:20.762Z,15.77
2023-03-01T01:57:31.759Z,15.78
2023-03-01T01:57:43.763Z,15.78
2023-03-01T01:57:54.782Z,15.78
2023-03-01T01:58:05.780Z,15.78
2023-03-01T01:58:17.784Z,15.78
2023-03-01T01:58:29.778Z,15.78
2023-03-01T01:58:41.739Z,15.80
2023-03-01T01:58:52.759Z,15.77
2023-03-01T01:59:03.767Z,15.78
2023-03-01T01:59:15.756Z,15.77
2023-03-01T01:59:26.760Z,15.78
2023-03-01T01:59:37.755Z,15.78
2023-03-01T01:59:48.757Z,15.80
2023-03-01T01:59:59.749Z,15.80
2023-03-01T02:00:10.749Z,15.80
2023-03-01T02:00:21.765Z,15.77
2023-03-01T02:00:33.778Z,15.77
2023-03-01T02:00:45.752Z,15.78
2023-03-01T02:00:57.754Z,15.78
2023-03-01T02:01:08.752Z,15.78
2023-03-01T02:01:19.746Z,15.77
2023-03-01T02:01:30.748Z,15.78
2023-03-01T02:01:41.758Z,15.78
2023-03-01T02:01:52.757Z,15.77
2023-03-01T02:02:03.754Z,15.77
2023-03-01T02:02:14.762Z,15.78
2023-03-01T02:02:25.914Z,15.78
2023-03-01T02:02:36.845Z,15.77
2023-03-01T02:02:47.905Z,15.78
2023-03-01T02:02:58.898Z,15.77
2023-03-01T02:03:10.899Z,15.78
2023-03-01T02:03:21.842Z,15.78
2023-03-01T02:03:33.906Z,15.77
2023-03-01T02:03:44.911Z,15.76
2023-03-01T02:03:55.759Z,15.77
2023-03-01T02:04:07.737Z,15.78
2023-03-01T02:04:19.754Z,15.78
2023-03-01T02:04:30.761Z,15.77
2023-03-01T02:04:41.749Z,15.77
2023-03-01T02:04:52.755Z,15.78
2023-03-01T02:05:03.757Z,15.77
2023-03-01T02:05:14.761Z,15.77
2023-03-01T02:05:25.772Z,15.77
2023-03-01T02:05:36.779Z,15.77
2023-03-01T02:05:55.011Z,15.77
2023-03-01T02:06:01.833Z,15.78
2023-03-01T02:06:11.772Z,15.77
2023-03-01T02:06:23.758Z,15.78
2023-03-01T02:06:34.774Z,15.77
2023-03-01T02:06:46.903Z,15.76
2023-03-01T02:06:58.775Z,15.78
2023-03-01T02:07:10.749Z,15.77
2023-03-01T02:07:21.756Z,15.77
2023-03-01T02:07:33.749Z,15.77
2023-03-01T02:07:44.757Z,15.77
2023-03-01T02:07:55.777Z,15.78
2023-03-01T02:08:07.775Z,15.77
2023-03-01T02:08:18.771Z,15.78
2023-03-01T02:08:30.748Z,15.78
2023-03-01T02:08:42.771Z,15.77
2023-03-01T02:08:54.792Z,15.77
2023-03-01T02:09:06.767Z,15.77
2023-03-01T02:09:17.778Z,15.77
2023-03-01T02:09:29.753Z,15.78
2023-03-01T02:09:40.769Z,15.77
2023-03-01T02:09:52.751Z,15.77
2023-03-01T02:10:03.746Z,15.78
2023-03-01T02:10:14.754Z,15.77
2023-03-01T02:10:25.763Z,15.78
2023-03-01T02:10:36.757Z,15.78
2023-03-01T02:10:48.765Z,15.80
2023-03-01T02:10:59.782Z,15.78
2023-03-01T02:11:11.757Z,15.77
2023-03-01T02:11:23.744Z,15.77
2023-03-01T02:11:34.738Z,15.77
2023-03-01T02:11:45.728Z,15.78
2023-03-01T02:11:56.744Z,15.77
2023-03-01T02:12:07.743Z,15.77
2023-03-01T02:12:18.758Z,15.77
2023-03-01T02:12:29.773Z,15.77
2023-03-01T02:12:41.767Z,15.77
2023-03-01T02:12:52.759Z,15.77
2023-03-01T02:13:04.778Z,15.78
2023-03-01T02:13:16.793Z,15.78
2023-03-01T02:13:28.771Z,15.77
2023-03-01T02:13:40.752Z,15.78
2023-03-01T02:13:51.765Z,15.77
2023-03-01T02:14:02.791Z,15.77
2023-03-01T02:14:14.783Z,15.76
2023-03-01T02:14:26.752Z,15.77
2023-03-01T02:14:37.755Z,15.76
2023-03-01T02:14:48.769Z,15.76
2023-03-01T02:15:00.758Z,15.77
2023-03-01T02:15:11.748Z,15.77
2023-03-01T02:15:23.742Z,15.77
2023-03-01T02:15:34.759Z,15.77
2023-03-01T02:15:45.813Z,15.77
2023-03-01T02:15:56.750Z,15.77
2023-03-01T02:16:07.782Z,15.77
2023-03-01T02:16:19.807Z,15.77
2023-03-01T02:16:31.187Z,15.77
2023-03-01T02:16:41.714Z,15.77
2023-03-01T02:16:52.738Z,15.77
2023-03-01T02:17:03.780Z,15.76
2023-03-01T02:17:15.747Z,15.76
2023-03-01T02:17:26.759Z,15.77
2023-03-01T02:17:37.762Z,15.77
2023-03-01T02:17:48.759Z,15.77
2023-03-01T02:17:59.764Z,15.76
2023-03-01T02:18:10.772Z,15.77
2023-03-01T02:18:22.758Z,15.77
2023-03-01T02:18:33.752Z,15.76
2023-03-01T02:18:44.751Z,15.77
2023-03-01T02:18:55.757Z,15.74
2023-03-01T02:19:06.769Z,15.78
2023-03-01T02:19:17.781Z,15.76
2023-03-01T02:19:29.756Z,15.77
2023-03-01T02:19:41.740Z,15.77
2023-03-01T02:19:52.744Z,15.76
2023-03-01T02:20:03.740Z,15.76
2023-03-01T02:20:14.772Z,15.76
2023-03-01T02:20:26.789Z,15.77
2023-03-01T02:20:38.775Z,15.77
2023-03-01T02:20:50.774Z,15.77
2023-03-01T02:21:01.774Z,15.76
2023-03-01T02:21:13.781Z,15.77
2023-03-01T02:21:25.745Z,15.77
2023-03-01T02:21:36.759Z,15.77
2023-03-01T02:21:47.775Z,15.77
2023-03-01T02:21:59.777Z,15.78
2023-03-01T02:22:11.758Z,15.77
2023-03-01T02:22:22.860Z,15.77
2023-03-01T02:22:34.875Z,15.77
2023-03-01T02:22:45.726Z,15.78
2023-03-01T02:22:56.718Z,15.77
2023-03-01T02:23:07.829Z,15.78
2023-03-01T02:23:19.816Z,15.77
2023-03-01T02:23:31.770Z,15.77
2023-03-01T02:23:43.741Z,15.77
2023-03-01T02:23:54.739Z,15.77
2023-03-01T02:24:06.757Z,15.77
2023-03-01T02:24:19.300Z,15.76
2023-03-01T02:24:28.766Z,15.78
2023-03-01T02:24:40.751Z,15.76
2023-03-01T02:24:51.764Z,15.77
2023-03-01T02:25:03.771Z,15.77
2023-03-01T02:25:14.765Z,15.77
2023-03-01T02:25:26.746Z,15.77
2023-03-01T02:25:37.759Z,15.74
2023-03-01T02:25:49.747Z,15.77
2023-03-01T02:26:00.767Z,15.77
2023-03-01T02:26:11.747Z,15.77
2023-03-01T02:26:22.750Z,15.77
2023-03-01T02:26:33.760Z,15.76
2023-03-01T02:26:45.749Z,15.77
2023-03-01T02:26:56.753Z,15.77
2023-03-01T02:27:07.772Z,15.76
2023-03-01T02:27:19.751Z,15.77
2023-03-01T02:27:30.760Z,15.76
2023-03-01T02:27:41.780Z,15.78
2023-03-01T02:27:53.754Z,15.77
2023-03-01T02:28:04.767Z,15.76
2023-03-01T02:28:15.771Z,15.76
2023-03-01T02:28:26.790Z,15.76
2023-03-01T02:28:38.753Z,15.74